This is the latest recevied weather packets stored in our database for station/object SV2ASS-2. If no packets are shown the sender has not sent any weather packets the latest 1 day(s).
| Time | Temp. | Humidity | Pressure | Rain* | Wind** | Luminosity | Snow |
|---|---|---|---|---|---|---|---|
| 1778097463 | 17.78° C | 41% | 1019.3 hPa | - | - | - | - |
| 1778096563 | 17.78° C | 40% | 1019.3 hPa | - | - | - | - |
| 1778095663 | 18.89° C | 40% | 1019.4 hPa | - | - | - | - |
| 1778088502 | 21.11° C | 44% | 1018.3 hPa | - | - | - | - |
| 1778087562 | 21.67° C | 43% | 1018.1 hPa | - | - | - | - |
| 1778085762 | 23.33° C | 41% | 1018 hPa | - | - | - | - |
| 1778084862 | 23.89° C | 38% | 1017.8 hPa | - | - | - | - |
| 1778077663 | 26.67° C | 32% | 1017.9 hPa | - | - | - | - |
| 1778076763 | 26.11° C | 35% | 1017.8 hPa | - | - | - | - |
| 1778074963 | 26.11° C | 32% | 1017.9 hPa | - | - | - | - |
| 1778074063 | 27.22° C | 36% | 1018 hPa | - | - | - | - |
| 1778067762 | 25.56° C | 35% | 1018.8 hPa | - | - | - | - |
| 1778065962 | 25.56° C | 36% | 1019 hPa | - | - | - | - |
| 1778065062 | 25° C | 36% | 1019.1 hPa | - | - | - | - |
| 1778064162 | 24.44° C | 37% | 1019.2 hPa | - | - | - | - |
| 1778058761 | 21.67° C | 39% | 1019.7 hPa | - | - | - | - |
| 1778055163 | 18.89° C | 48% | 1019.6 hPa | - | - | - | - |
| 1778053363 | 17.78° C | 52% | 1019.8 hPa | - | - | - | - |
| 1778052463 | 17.22° C | 54% | 1019.8 hPa | - | - | - | - |
| 1778051563 | 16.67° C | 55% | 1019.9 hPa | - | - | - | - |
| 1778050663 | 16.11° C | 55% | 1019.8 hPa | - | - | - | - |
| 1778049763 | 16.11° C | 53% | 1019.8 hPa | - | - | - | - |
| 1778048863 | 15.56° C | 55% | 1019.9 hPa | - | - | - | - |
| 1778045262 | 13.33° C | 67% | 1019.8 hPa | - | - | - | - |
| 1778044362 | 13.33° C | 65% | 1019.7 hPa | - | - | - | - |
* Rain since midnight (hover to see other rain measurements)
** Current wind speed in m/s (hover to see current wind gust speed)